CYZT

Port Hardy Airport

Port Hardy, , Canada
TAF AMD CYZT 142127Z 1421/1507 22007KT 6SM -RA BR SCT007 OVC015 TEMPO 1421/1423 3SM RASN BR BKN007 OVC015 FM142300 27010KT P6SM SCT008 BKN025 OVC040 TEMPO 1423/1502 4SM SHRASN BR BKN008 OVC020 FM150200 27005KT P6SM BKN030 RMK NXT FCST BY 150100Z
Issued Valid From Valid To
Dec-14 @ 21:27 UTC
(38 minutes ago)
Dec-14 @ 21:00 UTC
(an hour ago)
Dec-15 @ 07:00 UTC
(in 9 hours)
Dec-14 @ 21:00 to Dec-14 @ 23:00
TAF AMD CYZT 142127Z 1421/1507 22007KT 6SM -RA BR SCT007 OVC015
Wind Visibility Clouds Conditions
220° at 7 knots 6 miles
  • Scattered at 700' AGL
  • Overcast at 1,500' AGL
  • Light Rain
  • Mist
Temporary Dec-14 @ 21:00 to Dec-14 @ 23:00
TEMPO 1421/1423 3SM RASN BR BKN007 OVC015
Visibility Clouds Conditions
3 miles
  • Broken at 700' AGL
  • Overcast at 1,500' AGL
  • Rain
  • Snow
  • Mist
Temporary Dec-14 @ 23:00 to Dec-15 @ 02:00
TEMPO 1423/1502 4SM SHRASN BR BKN008 OVC020
Visibility Clouds Conditions
4 miles
  • Broken at 800' AGL
  • Overcast at 2,000' AGL
  • Rain
  • Snow
  • Mist
From Dec-14 @ 23:00 to Dec-15 @ 02:00
FM142300 27010KT P6SM SCT008 BKN025 OVC040
Wind Visibility Clouds
270° at 10 knots Greater than 6 miles
  • Scattered at 800' AGL
  • Broken at 2,500' AGL
  • Overcast at 4,000' AGL
From Dec-15 @ 02:00 to Dec-15 @ 07:00
FM150200 27005KT P6SM BKN030 RMK NXT FCST BY 150100Z
Wind Visibility Clouds
270° at 5 knots Greater than 6 miles
  • Broken at 3,000' AGL
TAF AMD CYZT 142127Z 1421/1507 22007KT 6SM -RA BR SCT007 OVC015 TEMPO 1421/1423 3SM RASN BR BKN007 OVC015 FM142300 27010KT P6SM SCT008 BKN025 OVC040 TEMPO 1423/1502 4SM SHRASN BR BKN008 OVC020 FM150200 27005KT P6SM BKN030 RMK NXT FCST BY 150100Z
Issued Dec-14 @ 21:27 UTC
(38 minutes ago)
Valid From Dec-14 @ 21:00 UTC
(an hour ago)
Valid To Dec-15 @ 07:00 UTC
(in 9 hours)
Dec-14 @ 21:00 - Dec-14 @ 23:00
Wind Visibility
220° at 7 knots 6 miles
Clouds
  • Scattered at 700' AGL
  • Overcast at 1,500' AGL
Conditions
  • Light Rain
  • Mist
Temporary Dec-14 @ 21:00 - Dec-14 @ 23:00
Clouds
  • Broken at 700' AGL
  • Overcast at 1,500' AGL
Conditions
  • Rain
  • Snow
  • Mist
Temporary Dec-14 @ 23:00 - Dec-15 @ 02:00
Clouds
  • Broken at 800' AGL
  • Overcast at 2,000' AGL
Conditions
  • Rain
  • Snow
  • Mist
From Dec-14 @ 23:00 - Dec-15 @ 02:00
Wind Visibility
270° at 10 knots Greater than 6 miles
Clouds
  • Scattered at 800' AGL
  • Broken at 2,500' AGL
  • Overcast at 4,000' AGL
From Dec-15 @ 02:00 - Dec-15 @ 07:00
Wind Visibility
270° at 5 knots Greater than 6 miles
Clouds
  • Broken at 3,000' AGL